sensor_id;sensor_type;location;lat;lon;timestamp;pressure;altitude;pressure_sealevel;temperature;humidity
12468;BME280;57850;52.922;6.256;2022-08-27T00:00:55;101443.84;;;15.70;100.00
12468;BME280;57850;52.922;6.256;2022-08-27T00:03:21;101448.22;;;15.88;100.00
12468;BME280;57850;52.922;6.256;2022-08-27T00:05:51;101437.06;;;15.83;100.00
12468;BME280;57850;52.922;6.256;2022-08-27T00:08:18;101427.41;;;16.01;100.00
12468;BME280;57850;52.922;6.256;2022-08-27T00:10:46;101425.44;;;16.06;100.00
12468;BME280;57850;52.922;6.256;2022-08-27T00:13:13;101431.84;;;16.00;100.00
12468;BME280;57850;52.922;6.256;2022-08-27T00:15:40;101427.09;;;15.90;100.00
12468;BME280;57850;52.922;6.256;2022-08-27T00:18:07;101417.78;;;15.83;100.00
12468;BME280;57850;52.922;6.256;2022-08-27T00:20:33;101402.44;;;15.74;100.00
12468;BME280;57850;52.922;6.256;2022-08-27T00:23:00;101404.94;;;15.77;100.00
12468;BME280;57850;52.922;6.256;2022-08-27T00:25:27;101398.91;;;15.75;100.00
12468;BME280;57850;52.922;6.256;2022-08-27T00:27:55;101394.09;;;15.83;100.00
12468;BME280;57850;52.922;6.256;2022-08-27T00:30:23;101390.88;;;15.78;100.00
12468;BME280;57850;52.922;6.256;2022-08-27T00:32:49;101392.59;;;15.96;100.00
12468;BME280;57850;52.922;6.256;2022-08-27T00:35:16;101398.75;;;15.95;100.00
12468;BME280;57850;52.922;6.256;2022-08-27T00:37:43;101414.25;;;15.84;100.00
12468;BME280;57850;52.922;6.256;2022-08-27T00:40:20;101410.16;;;15.60;100.00
12468;BME280;57850;52.922;6.256;2022-08-27T00:42:47;101424.09;;;15.62;100.00
12468;BME280;57850;52.922;6.256;2022-08-27T00:45:18;101407.59;;;15.58;100.00
12468;BME280;57850;52.922;6.256;2022-08-27T00:47:48;101401.03;;;15.67;100.00
12468;BME280;57850;52.922;6.256;2022-08-27T00:50:17;101400.47;;;15.41;100.00
12468;BME280;57850;52.922;6.256;2022-08-27T00:52:46;101393.53;;;15.40;100.00
12468;BME280;57850;52.922;6.256;2022-08-27T00:55:16;101391.09;;;15.54;100.00
12468;BME280;57850;52.922;6.256;2022-08-27T00:57:45;101389.91;;;15.62;100.00
12468;BME280;57850;52.922;6.256;2022-08-27T01:00:17;101391.53;;;15.27;100.00
12468;BME280;57850;52.922;6.256;2022-08-27T01:02:44;101398.22;;;15.34;100.00
12468;BME280;57850;52.922;6.256;2022-08-27T01:05:13;101393.41;;;15.25;100.00
12468;BME280;57850;52.922;6.256;2022-08-27T01:07:44;101410.03;;;15.07;100.00
12468;BME280;57850;52.922;6.256;2022-08-27T01:10:14;101422.59;;;15.00;100.00
12468;BME280;57850;52.922;6.256;2022-08-27T01:12:43;101429.94;;;14.92;100.00
12468;BME280;57850;52.922;6.256;2022-08-27T01:15:12;101425.66;;;15.10;100.00
12468;BME280;57850;52.922;6.256;2022-08-27T01:17:42;101420.16;;;14.95;100.00
12468;BME280;57850;52.922;6.256;2022-08-27T01:20:14;101420.38;;;14.91;100.00
12468;BME280;57850;52.922;6.256;2022-08-27T01:22:47;101399.63;;;15.03;100.00
12468;BME280;57850;52.922;6.256;2022-08-27T01:25:18;101397.34;;;14.96;100.00
12468;BME280;57850;52.922;6.256;2022-08-27T01:27:46;101391.81;;;15.02;100.00
12468;BME280;57850;52.922;6.256;2022-08-27T01:30:15;101408.28;;;14.87;100.00
12468;BME280;57850;52.922;6.256;2022-08-27T01:32:43;101414.84;;;14.97;100.00
12468;BME280;57850;52.922;6.256;2022-08-27T01:35:12;101420.19;;;14.75;100.00
12468;BME280;57850;52.922;6.256;2022-08-27T01:37:40;101420.38;;;14.91;100.00
12468;BME280;57850;52.922;6.256;2022-08-27T01:40:10;101424.41;;;14.98;100.00
12468;BME280;57850;52.922;6.256;2022-08-27T01:42:40;101425.72;;;14.88;100.00
12468;BME280;57850;52.922;6.256;2022-08-27T01:45:10;101426.94;;;14.81;100.00
12468;BME280;57850;52.922;6.256;2022-08-27T01:47:37;101422.47;;;14.83;100.00
12468;BME280;57850;52.922;6.256;2022-08-27T01:50:06;101428.28;;;14.71;100.00
12468;BME280;57850;52.922;6.256;2022-08-27T01:52:36;101400.00;;;14.76;100.00
12468;BME280;57850;52.922;6.256;2022-08-27T01:55:04;101400.69;;;14.61;100.00
12468;BME280;57850;52.922;6.256;2022-08-27T01:57:31;101400.28;;;14.70;100.00
12468;BME280;57850;52.922;6.256;2022-08-27T02:00:01;101409.78;;;14.72;100.00
12468;BME280;57850;52.922;6.256;2022-08-27T02:02:27;101429.00;;;14.74;100.00
12468;BME280;57850;52.922;6.256;2022-08-27T02:04:54;101425.38;;;14.77;100.00
12468;BME280;57850;52.922;6.256;2022-08-27T02:07:21;101430.25;;;14.66;100.00
12468;BME280;57850;52.922;6.256;2022-08-27T02:09:48;101437.88;;;14.72;100.00
12468;BME280;57850;52.922;6.256;2022-08-27T02:12:14;101431.38;;;14.40;100.00
12468;BME280;57850;52.922;6.256;2022-08-27T02:14:41;101432.34;;;14.37;100.00
12468;BME280;57850;52.922;6.256;2022-08-27T02:17:09;101416.81;;;14.53;100.00
12468;BME280;57850;52.922;6.256;2022-08-27T02:19:37;101406.88;;;14.39;100.00
12468;BME280;57850;52.922;6.256;2022-08-27T02:22:03;101399.38;;;14.51;100.00
12468;BME280;57850;52.922;6.256;2022-08-27T02:24:30;101386.78;;;14.59;100.00
12468;BME280;57850;52.922;6.256;2022-08-27T02:26:56;101387.56;;;14.61;100.00
12468;BME280;57850;52.922;6.256;2022-08-27T02:29:23;101384.59;;;14.68;100.00
12468;BME280;57850;52.922;6.256;2022-08-27T02:31:50;101378.06;;;14.58;100.00
12468;BME280;57850;52.922;6.256;2022-08-27T02:34:18;101376.19;;;14.60;100.00
12468;BME280;57850;52.922;6.256;2022-08-27T02:36:44;101381.09;;;14.49;100.00
12468;BME280;57850;52.922;6.256;2022-08-27T02:39:11;101378.00;;;14.39;100.00
12468;BME280;57850;52.922;6.256;2022-08-27T02:41:38;101374.94;;;14.28;100.00
12468;BME280;57850;52.922;6.256;2022-08-27T02:44:05;101383.06;;;14.22;100.00
12468;BME280;57850;52.922;6.256;2022-08-27T02:46:31;101391.16;;;14.18;100.00
12468;BME280;57850;52.922;6.256;2022-08-27T02:48:58;101393.22;;;14.10;100.00
12468;BME280;57850;52.922;6.256;2022-08-27T02:51:26;101388.84;;;14.10;100.00
12468;BME280;57850;52.922;6.256;2022-08-27T02:53:53;101389.91;;;14.26;100.00
12468;BME280;57850;52.922;6.256;2022-08-27T02:56:19;101374.78;;;14.33;100.00
12468;BME280;57850;52.922;6.256;2022-08-27T02:58:46;101366.28;;;14.26;100.00
12468;BME280;57850;52.922;6.256;2022-08-27T03:01:13;101364.88;;;14.39;100.00
12468;BME280;57850;52.922;6.256;2022-08-27T03:03:39;101361.19;;;14.43;100.00
12468;BME280;57850;52.922;6.256;2022-08-27T03:06:07;101355.88;;;14.45;100.00
12468;BME280;57850;52.922;6.256;2022-08-27T03:08:35;101353.09;;;14.48;100.00
12468;BME280;57850;52.922;6.256;2022-08-27T03:11:01;101346.78;;;14.32;100.00
12468;BME280;57850;52.922;6.256;2022-08-27T03:13:28;101348.69;;;14.08;100.00
12468;BME280;57850;52.922;6.256;2022-08-27T03:15:54;101359.13;;;14.10;100.00
12468;BME280;57850;52.922;6.256;2022-08-27T03:18:21;101345.50;;;14.22;100.00
12468;BME280;57850;52.922;6.256;2022-08-27T03:20:49;101346.19;;;14.25;100.00
12468;BME280;57850;52.922;6.256;2022-08-27T03:23:18;101342.94;;;14.20;100.00
12468;BME280;57850;52.922;6.256;2022-08-27T03:25:50;101348.63;;;13.89;100.00
12468;BME280;57850;52.922;6.256;2022-08-27T03:30:47;101352.56;;;14.00;100.00
12468;BME280;57850;52.922;6.256;2022-08-27T03:33:15;101353.19;;;14.06;100.00
12468;BME280;57850;52.922;6.256;2022-08-27T03:35:42;101344.38;;;14.27;100.00
12468;BME280;57850;52.922;6.256;2022-08-27T03:38:08;101339.84;;;14.31;100.00
12468;BME280;57850;52.922;6.256;2022-08-27T03:40:35;101338.03;;;14.33;100.00
12468;BME280;57850;52.922;6.256;2022-08-27T03:43:03;101334.66;;;14.29;100.00
12468;BME280;57850;52.922;6.256;2022-08-27T03:45:29;101335.78;;;14.44;100.00
12468;BME280;57850;52.922;6.256;2022-08-27T03:47:56;101340.66;;;14.53;100.00
12468;BME280;57850;52.922;6.256;2022-08-27T03:50:22;101338.38;;;14.64;100.00
12468;BME280;57850;52.922;6.256;2022-08-27T03:52:49;101324.91;;;14.72;100.00
12468;BME280;57850;52.922;6.256;2022-08-27T03:55:16;101327.41;;;14.75;100.00
12468;BME280;57850;52.922;6.256;2022-08-27T03:57:42;101321.72;;;14.65;100.00
12468;BME280;57850;52.922;6.256;2022-08-27T04:00:11;101318.00;;;14.69;100.00
12468;BME280;57850;52.922;6.256;2022-08-27T04:02:39;101322.16;;;14.75;100.00
12468;BME280;57850;52.922;6.256;2022-08-27T04:05:08;101327.00;;;14.64;100.00
12468;BME280;57850;52.922;6.256;2022-08-27T04:07:34;101327.31;;;14.76;100.00
12468;BME280;57850;52.922;6.256;2022-08-27T04:10:01;101331.63;;;14.59;100.00
12468;BME280;57850;52.922;6.256;2022-08-27T04:12:27;101342.28;;;14.56;100.00
12468;BME280;57850;52.922;6.256;2022-08-27T04:14:54;101339.66;;;14.56;100.00
12468;BME280;57850;52.922;6.256;2022-08-27T04:17:22;101346.47;;;14.60;100.00
12468;BME280;57850;52.922;6.256;2022-08-27T04:19:50;101343.47;;;14.48;100.00
12468;BME280;57850;52.922;6.256;2022-08-27T04:22:18;101333.22;;;14.42;100.00
12468;BME280;57850;52.922;6.256;2022-08-27T04:24:45;101341.59;;;14.51;100.00
12468;BME280;57850;52.922;6.256;2022-08-27T04:27:12;101335.97;;;14.19;100.00
12468;BME280;57850;52.922;6.256;2022-08-27T04:29:39;101335.50;;;14.10;100.00
12468;BME280;57850;52.922;6.256;2022-08-27T04:32:06;101334.59;;;14.11;100.00
12468;BME280;57850;52.922;6.256;2022-08-27T04:34:34;101337.81;;;14.17;100.00
12468;BME280;57850;52.922;6.256;2022-08-27T04:37:01;101346.06;;;14.28;100.00
12468;BME280;57850;52.922;6.256;2022-08-27T04:39:29;101341.63;;;14.30;100.00
12468;BME280;57850;52.922;6.256;2022-08-27T04:41:57;101341.38;;;14.36;100.00
12468;BME280;57850;52.922;6.256;2022-08-27T04:44:25;101351.03;;;14.36;100.00
12468;BME280;57850;52.922;6.256;2022-08-27T04:46:54;101346.78;;;14.32;100.00
12468;BME280;57850;52.922;6.256;2022-08-27T04:49:22;101334.13;;;14.41;100.00
12468;BME280;57850;52.922;6.256;2022-08-27T04:51:50;101328.97;;;14.40;100.00
12468;BME280;57850;52.922;6.256;2022-08-27T04:54:16;101319.81;;;14.48;100.00
12468;BME280;57850;52.922;6.256;2022-08-27T04:56:43;101326.94;;;14.46;100.00
12468;BME280;57850;52.922;6.256;2022-08-27T04:59:10;101331.06;;;14.52;100.00
12468;BME280;57850;52.922;6.256;2022-08-27T05:01:39;101327.25;;;14.59;100.00
12468;BME280;57850;52.922;6.256;2022-08-27T05:04:06;101325.69;;;14.74;100.00
12468;BME280;57850;52.922;6.256;2022-08-27T05:06:34;101331.72;;;14.76;100.00
12468;BME280;57850;52.922;6.256;2022-08-27T05:09:03;101337.38;;;14.67;100.00
12468;BME280;57850;52.922;6.256;2022-08-27T05:11:30;101330.28;;;14.50;100.00
12468;BME280;57850;52.922;6.256;2022-08-27T05:14:01;101319.06;;;14.46;100.00
12468;BME280;57850;52.922;6.256;2022-08-27T05:16:28;101318.97;;;14.48;100.00
12468;BME280;57850;52.922;6.256;2022-08-27T05:18:56;101324.16;;;14.50;100.00
12468;BME280;57850;52.922;6.256;2022-08-27T05:21:24;101320.66;;;14.29;100.00
12468;BME280;57850;52.922;6.256;2022-08-27T05:23:54;101315.00;;;14.39;100.00
12468;BME280;57850;52.922;6.256;2022-08-27T05:26:23;101316.16;;;14.53;100.00
12468;BME280;57850;52.922;6.256;2022-08-27T05:28:50;101323.66;;;14.60;100.00
12468;BME280;57850;52.922;6.256;2022-08-27T05:31:17;101327.25;;;14.78;100.00
12468;BME280;57850;52.922;6.256;2022-08-27T05:33:45;101319.22;;;14.99;100.00
12468;BME280;57850;52.922;6.256;2022-08-27T05:36:17;101315.09;;;15.13;100.00
12468;BME280;57850;52.922;6.256;2022-08-27T05:38:45;101318.22;;;15.21;100.00
12468;BME280;57850;52.922;6.256;2022-08-27T05:41:15;101318.84;;;15.26;100.00
12468;BME280;57850;52.922;6.256;2022-08-27T05:43:45;101310.28;;;15.39;100.00
12468;BME280;57850;52.922;6.256;2022-08-27T05:46:14;101309.00;;;15.48;100.00
12468;BME280;57850;52.922;6.256;2022-08-27T05:48:43;101302.63;;;15.71;100.00
12468;BME280;57850;52.922;6.256;2022-08-27T05:51:13;101293.41;;;15.79;100.00
12468;BME280;57850;52.922;6.256;2022-08-27T05:53:40;101293.03;;;15.87;100.00
12468;BME280;57850;52.922;6.256;2022-08-27T05:56:11;101295.56;;;15.88;100.00
12468;BME280;57850;52.922;6.256;2022-08-27T05:58:38;101299.13;;;16.04;100.00
12468;BME280;57850;52.922;6.256;2022-08-27T06:01:24;101297.81;;;15.96;100.00
12468;BME280;57850;52.922;6.256;2022-08-27T06:03:51;101300.69;;;16.08;100.00
12468;BME280;57850;52.922;6.256;2022-08-27T06:06:20;101297.13;;;16.10;100.00
12468;BME280;57850;52.922;6.256;2022-08-27T06:08:47;101298.41;;;16.18;100.00
12468;BME280;57850;52.922;6.256;2022-08-27T06:11:14;101302.19;;;16.30;100.00
12468;BME280;57850;52.922;6.256;2022-08-27T06:13:40;101303.78;;;16.49;100.00
12468;BME280;57850;52.922;6.256;2022-08-27T06:16:10;101306.53;;;16.64;100.00
12468;BME280;57850;52.922;6.256;2022-08-27T06:18:41;101309.13;;;16.81;100.00
12468;BME280;57850;52.922;6.256;2022-08-27T06:21:08;101306.34;;;16.99;100.00
12468;BME280;57850;52.922;6.256;2022-08-27T06:23:35;101322.91;;;17.17;100.00
12468;BME280;57850;52.922;6.256;2022-08-27T06:26:05;101320.53;;;17.28;100.00
12468;BME280;57850;52.922;6.256;2022-08-27T06:28:32;101326.81;;;17.41;100.00
12468;BME280;57850;52.922;6.256;2022-08-27T06:31:03;101339.38;;;17.52;100.00
12468;BME280;57850;52.922;6.256;2022-08-27T06:33:31;101338.34;;;17.54;100.00
12468;BME280;57850;52.922;6.256;2022-08-27T06:35:59;101338.00;;;17.76;100.00
12468;BME280;57850;52.922;6.256;2022-08-27T06:38:26;101342.97;;;17.82;100.00
12468;BME280;57850;52.922;6.256;2022-08-27T06:40:54;101355.88;;;17.87;100.00
12468;BME280;57850;52.922;6.256;2022-08-27T06:43:21;101356.50;;;18.06;100.00
12468;BME280;57850;52.922;6.256;2022-08-27T06:45:49;101351.84;;;18.25;100.00
12468;BME280;57850;52.922;6.256;2022-08-27T06:48:16;101364.03;;;18.42;100.00
12468;BME280;57850;52.922;6.256;2022-08-27T06:50:43;101376.47;;;18.69;100.00
12468;BME280;57850;52.922;6.256;2022-08-27T06:53:11;101395.06;;;18.82;100.00
12468;BME280;57850;52.922;6.256;2022-08-27T06:55:42;101412.16;;;18.91;100.00
12468;BME280;57850;52.922;6.256;2022-08-27T06:58:10;101419.88;;;19.08;100.00
12468;BME280;57850;52.922;6.256;2022-08-27T07:00:36;101423.75;;;19.45;100.00
12468;BME280;57850;52.922;6.256;2022-08-27T07:03:04;101448.41;;;19.45;100.00
12468;BME280;57850;52.922;6.256;2022-08-27T07:05:31;101474.88;;;19.59;100.00
12468;BME280;57850;52.922;6.256;2022-08-27T07:07:58;101499.97;;;19.81;100.00
12468;BME280;57850;52.922;6.256;2022-08-27T07:10:26;101503.94;;;19.88;100.00
12468;BME280;57850;52.922;6.256;2022-08-27T07:12:53;101514.66;;;19.99;100.00
12468;BME280;57850;52.922;6.256;2022-08-27T07:15:20;101526.75;;;20.17;100.00
12468;BME280;57850;52.922;6.256;2022-08-27T07:17:47;101543.56;;;20.30;100.00
12468;BME280;57850;52.922;6.256;2022-08-27T07:20:15;101564.31;;;20.50;100.00
12468;BME280;57850;52.922;6.256;2022-08-27T07:22:42;101588.66;;;20.57;100.00
12468;BME280;57850;52.922;6.256;2022-08-27T07:25:13;101615.66;;;20.76;100.00
12468;BME280;57850;52.922;6.256;2022-08-27T07:27:44;101643.69;;;20.93;100.00
12468;BME280;57850;52.922;6.256;2022-08-27T07:30:12;101650.81;;;21.19;100.00
12468;BME280;57850;52.922;6.256;2022-08-27T07:32:40;101674.63;;;21.33;100.00
12468;BME280;57850;52.922;6.256;2022-08-27T07:35:07;101691.94;;;21.39;100.00
12468;BME280;57850;52.922;6.256;2022-08-27T07:37:34;101711.28;;;21.41;100.00
12468;BME280;57850;52.922;6.256;2022-08-27T07:40:02;101727.94;;;21.43;100.00
12468;BME280;57850;52.922;6.256;2022-08-27T07:42:29;101730.91;;;21.25;100.00
12468;BME280;57850;52.922;6.256;2022-08-27T07:45:14;101746.78;;;21.65;100.00
12468;BME280;57850;52.922;6.256;2022-08-27T07:47:41;101756.97;;;21.58;100.00
12468;BME280;57850;52.922;6.256;2022-08-27T07:50:08;101776.44;;;21.59;100.00
12468;BME280;57850;52.922;6.256;2022-08-27T07:52:35;101791.78;;;21.80;100.00
12468;BME280;57850;52.922;6.256;2022-08-27T07:55:01;101804.47;;;22.02;100.00
12468;BME280;57850;52.922;6.256;2022-08-27T07:57:29;101813.09;;;21.93;100.00
12468;BME280;57850;52.922;6.256;2022-08-27T07:59:55;101818.41;;;21.93;100.00
12468;BME280;57850;52.922;6.256;2022-08-27T08:02:23;101828.31;;;22.04;100.00
12468;BME280;57850;52.922;6.256;2022-08-27T08:04:51;101834.56;;;22.03;100.00
12468;BME280;57850;52.922;6.256;2022-08-27T08:07:18;101828.16;;;21.80;100.00
12468;BME280;57850;52.922;6.256;2022-08-27T08:09:46;101825.06;;;21.86;100.00
12468;BME280;57850;52.922;6.256;2022-08-27T08:12:12;101820.03;;;21.96;100.00
12468;BME280;57850;52.922;6.256;2022-08-27T08:14:39;101834.06;;;22.10;100.00
12468;BME280;57850;52.922;6.256;2022-08-27T08:17:06;101830.53;;;22.10;100.00
12468;BME280;57850;52.922;6.256;2022-08-27T08:19:34;101836.09;;;22.32;100.00
12468;BME280;57850;52.922;6.256;2022-08-27T08:22:00;101869.59;;;22.85;100.00
12468;BME280;57850;52.922;6.256;2022-08-27T08:24:27;101876.72;;;22.84;100.00
12468;BME280;57850;52.922;6.256;2022-08-27T08:26:53;101873.09;;;22.98;100.00
12468;BME280;57850;52.922;6.256;2022-08-27T08:29:20;101886.78;;;23.77;100.00
12468;BME280;57850;52.922;6.256;2022-08-27T08:31:46;101926.00;;;24.23;100.00
12468;BME280;57850;52.922;6.256;2022-08-27T08:34:13;101919.84;;;23.75;100.00
12468;BME280;57850;52.922;6.256;2022-08-27T08:36:41;101925.47;;;23.83;100.00
12468;BME280;57850;52.922;6.256;2022-08-27T08:39:08;101922.06;;;23.57;100.00
12468;BME280;57850;52.922;6.256;2022-08-27T08:41:39;101941.13;;;23.64;100.00
12468;BME280;57850;52.922;6.256;2022-08-27T08:44:15;101942.69;;;23.66;100.00
12468;BME280;57850;52.922;6.256;2022-08-27T08:46:48;101964.84;;;23.79;100.00
12468;BME280;57850;52.922;6.256;2022-08-27T08:49:25;101957.97;;;23.64;100.00
12468;BME280;57850;52.922;6.256;2022-08-27T08:52:01;101948.97;;;23.41;100.00
12468;BME280;57850;52.922;6.256;2022-08-27T08:54:33;101954.81;;;23.34;100.00
12468;BME280;57850;52.922;6.256;2022-08-27T08:57:03;101958.94;;;23.02;100.00
12468;BME280;57850;52.922;6.256;2022-08-27T08:59:33;101944.31;;;23.20;100.00
12468;BME280;57850;52.922;6.256;2022-08-27T09:02:01;101961.78;;;23.24;100.00
12468;BME280;57850;52.922;6.256;2022-08-27T09:04:28;101951.44;;;23.19;100.00
12468;BME280;57850;52.922;6.256;2022-08-27T09:07:00;101974.84;;;23.52;100.00
12468;BME280;57850;52.922;6.256;2022-08-27T09:09:33;101977.31;;;23.42;100.00
12468;BME280;57850;52.922;6.256;2022-08-27T09:12:04;101979.75;;;23.33;100.00
12468;BME280;57850;52.922;6.256;2022-08-27T09:14:39;101997.88;;;23.03;100.00
12468;BME280;57850;52.922;6.256;2022-08-27T09:17:08;101991.75;;;22.89;100.00
12468;BME280;57850;52.922;6.256;2022-08-27T09:19:34;101991.75;;;22.89;100.00
12468;BME280;57850;52.922;6.256;2022-08-27T09:22:10;102002.16;;;22.92;100.00
12468;BME280;57850;52.922;6.256;2022-08-27T09:24:48;102003.22;;;23.15;100.00
12468;BME280;57850;52.922;6.256;2022-08-27T09:27:18;102007.81;;;23.13;100.00
12468;BME280;57850;52.922;6.256;2022-08-27T09:29:49;101999.09;;;22.99;100.00
12468;BME280;57850;52.922;6.256;2022-08-27T09:32:22;102017.06;;;23.20;100.00
12468;BME280;57850;52.922;6.256;2022-08-27T09:34:49;102018.44;;;23.13;100.00
12468;BME280;57850;52.922;6.256;2022-08-27T09:37:19;102029.22;;;23.12;100.00
12468;BME280;57850;52.922;6.256;2022-08-27T09:39:51;102021.53;;;22.94;100.00
12468;BME280;57850;52.922;6.256;2022-08-27T09:42:27;102013.34;;;23.10;100.00
12468;BME280;57850;52.922;6.256;2022-08-27T09:44:56;102022.38;;;23.33;100.00
12468;BME280;57850;52.922;6.256;2022-08-27T09:47:23;102033.78;;;23.48;100.00
12468;BME280;57850;52.922;6.256;2022-08-27T09:50:01;102048.03;;;23.59;100.00
12468;BME280;57850;52.922;6.256;2022-08-27T09:52:31;102051.31;;;23.75;100.00
12468;BME280;57850;52.922;6.256;2022-08-27T09:54:58;102053.03;;;23.76;100.00
12468;BME280;57850;52.922;6.256;2022-08-27T09:57:31;102069.53;;;24.65;100.00
12468;BME280;57850;52.922;6.256;2022-08-27T10:00:00;102065.53;;;27.01;100.00
12468;BME280;57850;52.922;6.256;2022-08-27T10:02:27;102072.78;;;27.10;100.00
12468;BME280;57850;52.922;6.256;2022-08-27T10:04:56;102092.03;;;26.31;100.00
12468;BME280;57850;52.922;6.256;2022-08-27T10:07:32;102089.13;;;25.12;100.00
12468;BME280;57850;52.922;6.256;2022-08-27T10:10:06;102078.69;;;24.50;100.00
12468;BME280;57850;52.922;6.256;2022-08-27T10:12:42;102081.81;;;24.68;100.00
12468;BME280;57850;52.922;6.256;2022-08-27T10:15:13;102080.81;;;24.34;100.00
12468;BME280;57850;52.922;6.256;2022-08-27T10:17:47;102077.13;;;23.75;100.00
12468;BME280;57850;52.922;6.256;2022-08-27T10:20:24;102063.59;;;23.65;100.00
12468;BME280;57850;52.922;6.256;2022-08-27T10:23:00;102060.72;;;23.68;100.00
12468;BME280;57850;52.922;6.256;2022-08-27T10:25:35;102056.44;;;23.78;100.00
12468;BME280;57850;52.922;6.256;2022-08-27T10:28:13;102057.66;;;23.62;100.00
12468;BME280;57850;52.922;6.256;2022-08-27T10:30:54;102061.25;;;23.73;100.00
12468;BME280;57850;52.922;6.256;2022-08-27T10:33:28;102068.81;;;24.03;100.00
12468;BME280;57850;52.922;6.256;2022-08-27T10:36:00;102083.56;;;24.09;100.00
12468;BME280;57850;52.922;6.256;2022-08-27T10:38:36;102076.41;;;24.57;100.00
12468;BME280;57850;52.922;6.256;2022-08-27T10:41:11;102088.72;;;24.70;100.00
12468;BME280;57850;52.922;6.256;2022-08-27T10:43:57;102084.56;;;25.58;100.00
12468;BME280;57850;52.922;6.256;2022-08-27T10:46:43;102101.22;;;26.38;100.00
12468;BME280;57850;52.922;6.256;2022-08-27T10:49:18;102097.88;;;25.47;100.00
12468;BME280;57850;52.922;6.256;2022-08-27T10:51:52;102095.50;;;25.66;100.00
12468;BME280;57850;52.922;6.256;2022-08-27T10:54:26;102088.97;;;25.02;100.00
12468;BME280;57850;52.922;6.256;2022-08-27T10:56:59;102073.63;;;24.58;100.00
12468;BME280;57850;52.922;6.256;2022-08-27T10:59:32;102076.91;;;24.27;100.00
12468;BME280;57850;52.922;6.256;2022-08-27T11:02:11;102069.56;;;24.18;100.00
12468;BME280;57850;52.922;6.256;2022-08-27T11:04:49;102068.28;;;24.11;100.00
12468;BME280;57850;52.922;6.256;2022-08-27T11:07:21;102067.50;;;23.85;100.00
12468;BME280;57850;52.922;6.256;2022-08-27T11:09:55;102064.97;;;24.07;100.00
12468;BME280;57850;52.922;6.256;2022-08-27T11:12:25;102070.81;;;23.88;100.00
12468;BME280;57850;52.922;6.256;2022-08-27T11:14:56;102067.72;;;23.82;100.00
12468;BME280;57850;52.922;6.256;2022-08-27T11:17:29;102088.13;;;24.19;100.00
12468;BME280;57850;52.922;6.256;2022-08-27T11:20:00;102079.94;;;24.57;100.00
12468;BME280;57850;52.922;6.256;2022-08-27T11:22:34;102093.63;;;26.11;100.00
12468;BME280;57850;52.922;6.256;2022-08-27T11:25:09;102086.13;;;28.60;100.00
12468;BME280;57850;52.922;6.256;2022-08-27T11:27:39;102106.22;;;26.74;100.00
12468;BME280;57850;52.922;6.256;2022-08-27T11:30:10;102103.53;;;25.55;100.00
12468;BME280;57850;52.922;6.256;2022-08-27T11:32:48;102095.66;;;24.96;100.00
12468;BME280;57850;52.922;6.256;2022-08-27T11:35:23;102092.94;;;24.62;100.00
12468;BME280;57850;52.922;6.256;2022-08-27T11:38:18;102090.22;;;24.74;100.00
12468;BME280;57850;52.922;6.256;2022-08-27T11:41:05;102085.34;;;24.44;100.00
12468;BME280;57850;52.922;6.256;2022-08-27T11:43:39;102078.97;;;24.34;100.00
12468;BME280;57850;52.922;6.256;2022-08-27T11:46:07;102079.41;;;24.76;100.00
12468;BME280;57850;52.922;6.256;2022-08-27T11:48:38;102091.44;;;24.81;100.00
12468;BME280;57850;52.922;6.256;2022-08-27T11:51:06;102089.59;;;25.06;100.00
12468;BME280;57850;52.922;6.256;2022-08-27T11:53:36;102086.63;;;24.86;100.00
12468;BME280;57850;52.922;6.256;2022-08-27T11:56:12;102085.75;;;24.62;100.00
12468;BME280;57850;52.922;6.256;2022-08-27T11:58:41;102083.63;;;24.78;100.00
12468;BME280;57850;52.922;6.256;2022-08-27T12:01:14;102084.28;;;26.80;100.00
12468;BME280;57850;52.922;6.256;2022-08-27T12:03:41;102068.31;;;27.20;100.00
12468;BME280;57850;52.922;6.256;2022-08-27T12:06:17;102093.00;;;26.30;100.00
12468;BME280;57850;52.922;6.256;2022-08-27T12:08:46;102105.66;;;25.28;100.00
12468;BME280;57850;52.922;6.256;2022-08-27T12:11:28;102088.81;;;24.69;100.00
12468;BME280;57850;52.922;6.256;2022-08-27T12:14:07;102085.72;;;25.21;100.00
12468;BME280;57850;52.922;6.256;2022-08-27T12:16:42;102098.66;;;25.93;100.00
12468;BME280;57850;52.922;6.256;2022-08-27T12:19:42;102056.03;;;28.66;100.00
12468;BME280;57850;52.922;6.256;2022-08-27T12:22:21;102023.50;;;29.80;95.60
12468;BME280;57850;52.922;6.256;2022-08-27T12:24:55;102018.44;;;29.12;94.43
12468;BME280;57850;52.922;6.256;2022-08-27T12:27:31;102027.75;;;29.55;94.40
12468;BME280;57850;52.922;6.256;2022-08-27T12:30:03;102055.84;;;28.48;95.88
12468;BME280;57850;52.922;6.256;2022-08-27T12:32:36;102071.94;;;27.70;98.19
12468;BME280;57850;52.922;6.256;2022-08-27T12:35:08;102069.00;;;28.23;99.25
12468;BME280;57850;52.922;6.256;2022-08-27T12:37:38;102036.81;;;29.17;96.56
12468;BME280;57850;52.922;6.256;2022-08-27T12:40:13;102012.09;;;29.68;93.79
12468;BME280;57850;52.922;6.256;2022-08-27T12:42:43;102038.75;;;28.49;94.68
12468;BME280;57850;52.922;6.256;2022-08-27T12:45:18;102030.31;;;29.56;93.95
12468;BME280;57850;52.922;6.256;2022-08-27T12:47:44;102008.25;;;30.15;93.12
12468;BME280;57850;52.922;6.256;2022-08-27T12:50:11;101974.16;;;30.24;91.14
12468;BME280;57850;52.922;6.256;2022-08-27T12:55:49;101963.28;;;30.77;88.91
12468;BME280;57850;52.922;6.256;2022-08-27T12:58:33;101987.66;;;30.06;90.09